createdAt,value
2018-05-26T00:02:06.152Z,101099.39
2018-05-26T00:04:34.574Z,101099.02
2018-05-26T00:07:02.916Z,101106.63
2018-05-26T00:09:31.273Z,101103.92
2018-05-26T00:11:59.593Z,101100.19
2018-05-26T00:14:27.931Z,101097.59
2018-05-26T00:16:56.332Z,101093.27
2018-05-26T00:19:24.788Z,101096.47
2018-05-26T00:21:53.179Z,101095.64
2018-05-26T00:24:22.351Z,101100.63
2018-05-26T00:26:51.501Z,101088.73
2018-05-26T00:29:19.863Z,101092.06
2018-05-26T00:31:48.989Z,101100.21
2018-05-26T00:34:17.397Z,101102.52
2018-05-26T00:36:45.758Z,101101.75
2018-05-26T00:39:14.178Z,101093.00
2018-05-26T00:41:42.560Z,101089.09
2018-05-26T00:44:10.896Z,101090.02
2018-05-26T00:46:39.303Z,101085.05
2018-05-26T00:49:08.469Z,101085.68
2018-05-26T00:51:36.832Z,101088.77
2018-05-26T00:54:05.225Z,101080.06
2018-05-26T00:56:33.539Z,101082.87
2018-05-26T00:59:01.956Z,101088.06
2018-05-26T01:01:30.317Z,101093.95
2018-05-26T01:03:58.677Z,101098.03
2018-05-26T01:06:27.801Z,101092.75
2018-05-26T01:08:56.195Z,101087.75
2018-05-26T01:11:24.655Z,101096.90
2018-05-26T01:13:53.060Z,101084.35
2018-05-26T01:16:21.395Z,101088.34
2018-05-26T01:18:49.727Z,101094.85
2018-05-26T01:21:18.141Z,101101.55
2018-05-26T01:23:46.556Z,101095.30
2018-05-26T01:26:15.288Z,101095.84
2018-05-26T01:28:43.616Z,101088.81
2018-05-26T01:31:12.776Z,101090.99
2018-05-26T01:33:41.141Z,101091.49
2018-05-26T01:36:09.549Z,101090.28
2018-05-26T01:38:37.955Z,101089.25
2018-05-26T01:41:06.310Z,101091.47
2018-05-26T01:43:34.709Z,101088.59
2018-05-26T01:46:03.088Z,101086.40
2018-05-26T01:48:31.495Z,101086.15
2018-05-26T01:50:59.827Z,101089.84
2018-05-26T01:53:28.203Z,101087.23
2018-05-26T01:55:56.594Z,101093.11
2018-05-26T01:58:25.035Z,101102.00
2018-05-26T02:00:53.378Z,101104.30
2018-05-26T02:03:21.800Z,101107.63
2018-05-26T02:05:50.138Z,101109.09
2018-05-26T02:08:18.489Z,101109.91
2018-05-26T02:10:47.600Z,101106.55
2018-05-26T02:13:16.727Z,101104.59
2018-05-26T02:15:45.110Z,101107.75
2018-05-26T02:18:13.448Z,101104.47
2018-05-26T02:20:41.844Z,101102.23
2018-05-26T02:23:10.174Z,101105.35
2018-05-26T02:25:39.348Z,101100.94
2018-05-26T02:28:07.667Z,101105.30
2018-05-26T02:30:36.803Z,101111.56
2018-05-26T02:33:05.194Z,101114.53
2018-05-26T02:35:33.582Z,101114.08
2018-05-26T02:38:01.990Z,101111.98
2018-05-26T02:40:30.377Z,101104.53
2018-05-26T02:42:58.804Z,101112.27
2018-05-26T02:45:27.199Z,101106.73
2018-05-26T02:47:55.553Z,101113.38
2018-05-26T02:50:23.944Z,101115.85
2018-05-26T02:52:52.313Z,101112.11
2018-05-26T02:55:21.481Z,101117.00
2018-05-26T02:57:49.795Z,101114.63
2018-05-26T03:00:18.923Z,101110.12
2018-05-26T03:02:47.299Z,101108.35
2018-05-26T03:05:21.203Z,101109.30
2018-05-26T03:07:54.959Z,101107.22
2018-05-26T03:10:28.931Z,101103.56
2018-05-26T03:13:02.883Z,101095.31
2018-05-26T03:15:31.232Z,101101.14
2018-05-26T03:18:01.437Z,101100.55
2018-05-26T03:20:29.855Z,101094.42
2018-05-26T03:22:58.179Z,101095.72
2018-05-26T03:25:26.524Z,101094.03
2018-05-26T03:27:54.879Z,101099.61
2018-05-26T03:30:24.044Z,101104.95
2018-05-26T03:32:52.429Z,101115.98
2018-05-26T03:35:20.828Z,101116.92
2018-05-26T03:37:49.235Z,101121.32
2018-05-26T03:40:17.579Z,101121.72
2018-05-26T03:42:46.255Z,101120.96
2018-05-26T03:45:15.419Z,101118.02
2018-05-26T03:47:43.819Z,101119.86
2018-05-26T03:50:12.168Z,101122.70
2018-05-26T03:52:41.279Z,101123.41
2018-05-26T03:58:42.463Z,101133.22
2018-05-26T04:01:11.643Z,101137.75
2018-05-26T04:03:40.048Z,101145.00
2018-05-26T04:06:09.551Z,101147.55
2018-05-26T04:08:37.959Z,101145.97
2018-05-26T04:11:07.130Z,101149.30
2018-05-26T04:13:35.472Z,101150.00
2018-05-26T04:16:04.669Z,101154.79
2018-05-26T04:18:33.836Z,101157.84
2018-05-26T04:21:02.172Z,101156.56
2018-05-26T04:23:30.556Z,101157.97
2018-05-26T04:25:58.973Z,101160.48
2018-05-26T04:28:28.131Z,101153.42
2018-05-26T04:30:56.483Z,101160.99
2018-05-26T04:33:24.834Z,101162.08
2018-05-26T04:35:53.261Z,101153.00
2018-05-26T04:38:22.415Z,101159.63
2018-05-26T04:40:50.821Z,101167.23
2018-05-26T04:43:19.170Z,101169.45
2018-05-26T04:45:47.645Z,101162.14
2018-05-26T04:48:16.276Z,101162.41
2018-05-26T04:50:45.464Z,101163.92
2018-05-26T04:53:13.863Z,101173.02
2018-05-26T04:55:42.194Z,101172.72
2018-05-26T04:58:10.572Z,101174.64
2018-05-26T05:00:38.958Z,101169.01
2018-05-26T05:03:07.323Z,101168.59
2018-05-26T05:05:36.463Z,101173.90
2018-05-26T05:08:05.538Z,101174.91
2018-05-26T05:10:33.899Z,101175.45
2018-05-26T05:13:02.289Z,101180.23
2018-05-26T05:15:30.665Z,101178.23
2018-05-26T05:17:59.019Z,101183.92
2018-05-26T05:20:27.451Z,101172.87
2018-05-26T05:23:09.849Z,101175.03
2018-05-26T05:25:38.469Z,101171.94
2018-05-26T05:28:06.846Z,101183.67
2018-05-26T05:30:35.993Z,101178.34
2018-05-26T05:33:04.407Z,101185.27
2018-05-26T05:35:33.931Z,101189.03
2018-05-26T05:38:02.415Z,101185.56
2018-05-26T05:40:31.071Z,101194.90
2018-05-26T05:43:00.219Z,101196.19
2018-05-26T05:45:28.810Z,101195.59
2018-05-26T05:47:57.284Z,101202.42
2018-05-26T05:50:25.720Z,101196.50
2018-05-26T05:52:54.146Z,101202.16
2018-05-26T05:55:22.554Z,101195.79
2018-05-26T05:57:50.967Z,101197.59
2018-05-26T06:00:19.333Z,101200.24
2018-05-26T06:02:47.764Z,101204.45
2018-05-26T06:05:16.147Z,101208.41
2018-05-26T06:07:44.483Z,101201.31
2018-05-26T06:10:12.876Z,101199.64
2018-05-26T06:12:41.243Z,101198.05
2018-05-26T06:15:09.690Z,101193.89
2018-05-26T06:17:39.731Z,101200.86
2018-05-26T06:20:08.136Z,101205.47
2018-05-26T06:22:36.575Z,101201.91
2018-05-26T06:25:05.045Z,101202.25
2018-05-26T06:27:33.677Z,101208.73
2018-05-26T06:30:02.401Z,101207.47
2018-05-26T06:32:30.858Z,101210.33
2018-05-26T06:34:59.232Z,101217.09
2018-05-26T06:37:27.627Z,101218.69
2018-05-26T06:39:56.039Z,101224.76
2018-05-26T06:42:24.426Z,101222.31
2018-05-26T06:44:52.847Z,101224.69
2018-05-26T06:47:21.257Z,101228.61
2018-05-26T06:49:49.667Z,101222.28
2018-05-26T06:52:18.051Z,101227.90
2018-05-26T06:54:46.461Z,101220.66
2018-05-26T06:57:14.851Z,101219.48
2018-05-26T06:59:43.220Z,101216.41
2018-05-26T07:02:11.603Z,101215.53
2018-05-26T07:04:40.029Z,101213.63
2018-05-26T07:07:08.420Z,101213.28
2018-05-26T07:09:48.038Z,101209.89
2018-05-26T07:12:19.198Z,101213.27
2018-05-26T07:14:47.519Z,101209.73
2018-05-26T07:17:15.872Z,101211.19
2018-05-26T07:19:44.235Z,101209.45
2018-05-26T07:22:13.541Z,101208.69
2018-05-26T07:24:41.956Z,101202.87
2018-05-26T07:27:16.551Z,101200.52
2018-05-26T07:29:45.129Z,101200.77
2018-05-26T07:32:13.539Z,101203.08
2018-05-26T07:34:41.923Z,101202.42
2018-05-26T07:37:10.290Z,101204.52
2018-05-26T07:39:53.445Z,101199.21
2018-05-26T07:42:21.818Z,101198.07
2018-05-26T07:44:50.198Z,101198.58
2018-05-26T07:47:18.559Z,101196.47
2018-05-26T07:49:47.389Z,101197.19
2018-05-26T07:52:15.790Z,101197.81
2018-05-26T07:54:44.195Z,101196.76
2018-05-26T07:57:12.548Z,101202.81
2018-05-26T07:59:41.978Z,101195.59
2018-05-26T08:02:10.484Z,101200.41
2018-05-26T08:04:38.877Z,101201.59
2018-05-26T08:07:07.251Z,101200.14
2018-05-26T08:09:35.574Z,101200.83
2018-05-26T08:12:04.735Z,101193.42
2018-05-26T08:14:33.087Z,101198.98
2018-05-26T08:17:01.491Z,101200.97
2018-05-26T08:19:29.916Z,101198.11
2018-05-26T08:21:58.291Z,101198.27
2018-05-26T08:24:26.662Z,101199.94
2018-05-26T08:26:55.041Z,101199.86
2018-05-26T08:29:23.397Z,101198.87
2018-05-26T08:31:51.725Z,101200.48
2018-05-26T08:34:20.108Z,101202.41
2018-05-26T08:36:49.236Z,101209.47
2018-05-26T08:39:17.774Z,101207.82
2018-05-26T08:41:46.121Z,101209.33
2018-05-26T08:44:14.514Z,101212.41
2018-05-26T08:46:42.875Z,101210.53
2018-05-26T08:49:11.252Z,101216.14
2018-05-26T08:51:39.587Z,101211.66
2018-05-26T08:54:10.477Z,101208.57
2018-05-26T08:56:38.867Z,101208.16
2018-05-26T08:59:07.243Z,101212.50
2018-05-26T09:01:35.587Z,101214.73
2018-05-26T09:04:04.007Z,101215.88
2018-05-26T09:06:32.368Z,101215.33
2018-05-26T09:09:00.716Z,101211.06
2018-05-26T09:11:29.092Z,101202.24
2018-05-26T09:13:57.468Z,101199.86
2018-05-26T09:16:25.819Z,101206.02
2018-05-26T09:18:54.161Z,101212.28
2018-05-26T09:21:22.503Z,101202.61
2018-05-26T09:23:50.884Z,101196.06
2018-05-26T09:26:19.314Z,101196.31
2018-05-26T09:28:47.726Z,101202.49
2018-05-26T09:31:16.148Z,101200.32
2018-05-26T09:33:44.552Z,101196.27
2018-05-26T09:36:12.952Z,101205.64
2018-05-26T09:38:51.147Z,101201.31
2018-05-26T09:41:29.618Z,101201.78
2018-05-26T09:43:58.101Z,101203.41
2018-05-26T09:46:26.568Z,101209.11
2018-05-26T09:48:54.967Z,101203.33
2018-05-26T09:51:23.446Z,101200.23
2018-05-26T09:53:52.670Z,101200.95
2018-05-26T09:59:13.015Z,101191.75
2018-05-26T10:01:41.445Z,101197.36
2018-05-26T10:04:09.935Z,101191.19
2018-05-26T10:06:38.284Z,101195.75
2018-05-26T10:09:06.745Z,101196.29
2018-05-26T10:11:35.262Z,101196.63
2018-05-26T10:14:03.756Z,101192.60
2018-05-26T10:16:32.191Z,101190.19
2018-05-26T10:19:00.630Z,101186.25
2018-05-26T10:21:29.003Z,101185.10
2018-05-26T10:23:57.480Z,101180.67
2018-05-26T10:26:25.938Z,101175.57
2018-05-26T10:28:54.415Z,101179.17
2018-05-26T10:31:22.818Z,101182.03
2018-05-26T10:33:51.250Z,101176.86
2018-05-26T10:36:19.655Z,101175.89
2018-05-26T10:38:48.100Z,101173.94
2018-05-26T10:41:16.566Z,101175.67
2018-05-26T10:43:45.057Z,101172.37
2018-05-26T10:46:25.884Z,101160.61
2018-05-26T10:48:54.317Z,101168.09
2018-05-26T10:51:22.768Z,101161.22
2018-05-26T10:53:51.338Z,101165.17
2018-05-26T10:56:19.885Z,101162.62
2018-05-26T10:58:48.658Z,101163.84
2018-05-26T11:01:17.135Z,101159.72
2018-05-26T11:03:45.573Z,101167.35
2018-05-26T11:06:14.084Z,101171.87
2018-05-26T11:08:42.621Z,101167.34
2018-05-26T11:14:21.297Z,101164.14
2018-05-26T11:16:49.693Z,101168.34
2018-05-26T11:19:18.087Z,101168.23
2018-05-26T11:21:46.411Z,101168.06
2018-05-26T11:24:26.665Z,101167.29
2018-05-26T11:26:55.521Z,101167.29
2018-05-26T11:29:23.911Z,101162.47
2018-05-26T11:32:02.628Z,101160.80
2018-05-26T11:34:37.664Z,101170.13
2018-05-26T11:37:06.019Z,101169.50
2018-05-26T11:42:57.926Z,101169.22
2018-05-26T11:45:29.103Z,101159.99
2018-05-26T11:47:57.443Z,101162.45
2018-05-26T11:50:25.769Z,101158.75
2018-05-26T11:52:54.158Z,101156.16
2018-05-26T11:55:22.596Z,101139.66
2018-05-26T11:57:50.980Z,101146.30
2018-05-26T12:00:20.587Z,101151.65
2018-05-26T12:02:49.065Z,101154.66
2018-05-26T12:05:17.725Z,101154.12
2018-05-26T12:07:55.554Z,101156.81
2018-05-26T12:10:24.531Z,101157.66
2018-05-26T12:12:52.947Z,101155.30
2018-05-26T12:15:21.284Z,101156.91
2018-05-26T12:17:49.683Z,101151.73
2018-05-26T12:20:18.260Z,101154.50
2018-05-26T12:22:46.620Z,101150.32
2018-05-26T12:25:15.064Z,101149.37
2018-05-26T12:27:43.443Z,101149.37
2018-05-26T12:30:11.809Z,101137.09
2018-05-26T12:32:40.147Z,101139.98
2018-05-26T12:38:18.675Z,101147.36
2018-05-26T12:40:47.039Z,101144.94
2018-05-26T12:43:15.459Z,101146.55
2018-05-26T12:45:43.793Z,101146.38
2018-05-26T12:48:12.984Z,101143.26
2018-05-26T12:50:41.349Z,101139.58
2018-05-26T12:53:09.712Z,101137.55
2018-05-26T12:55:38.156Z,101138.60
2018-05-26T12:58:06.500Z,101142.88
2018-05-26T13:00:34.887Z,101137.78
2018-05-26T13:03:03.277Z,101135.59
2018-05-26T13:05:31.656Z,101138.52
2018-05-26T13:08:00.827Z,101138.09
2018-05-26T13:10:31.882Z,101147.59
2018-05-26T13:13:00.393Z,101147.86
2018-05-26T13:15:28.870Z,101139.86
2018-05-26T13:17:57.584Z,101135.82
2018-05-26T13:20:26.121Z,101129.75
2018-05-26T13:22:54.523Z,101132.34
2018-05-26T13:25:22.961Z,101130.27
2018-05-26T13:27:51.359Z,101124.40
2018-05-26T13:30:19.748Z,101129.52
2018-05-26T13:32:48.102Z,101130.09
2018-05-26T13:35:16.476Z,101132.03
2018-05-26T13:37:44.812Z,101128.84
2018-05-26T13:40:13.157Z,101125.83
2018-05-26T13:42:41.533Z,101124.13
2018-05-26T13:45:09.916Z,101121.89
2018-05-26T13:47:38.319Z,101118.94
2018-05-26T13:50:06.716Z,101113.36
2018-05-26T13:52:41.697Z,101110.55
2018-05-26T13:55:10.152Z,101107.53
2018-05-26T13:57:38.474Z,101104.76
2018-05-26T14:00:06.838Z,101099.90
2018-05-26T14:02:35.256Z,101108.37
2018-05-26T14:05:03.647Z,101106.16
2018-05-26T14:07:32.210Z,101095.09
2018-05-26T14:10:00.678Z,101098.22
2018-05-26T14:12:29.454Z,101097.33
2018-05-26T14:14:57.783Z,101103.14
2018-05-26T14:17:26.207Z,101107.91
2018-05-26T14:20:00.932Z,101101.30
2018-05-26T14:22:29.341Z,101097.85
2018-05-26T14:25:01.109Z,101095.66
2018-05-26T14:27:29.741Z,101092.01
2018-05-26T14:29:59.475Z,101088.77
2018-05-26T14:32:27.881Z,101086.43
2018-05-26T14:34:56.296Z,101093.83
2018-05-26T14:37:24.692Z,101088.69
2018-05-26T14:39:53.040Z,101086.02
2018-05-26T14:42:21.360Z,101078.66
2018-05-26T14:44:49.786Z,101079.20
2018-05-26T14:47:18.119Z,101093.08
2018-05-26T14:49:46.498Z,101084.98
2018-05-26T14:52:14.809Z,101080.44
2018-05-26T14:54:43.188Z,101078.16
2018-05-26T14:57:11.514Z,101075.44
2018-05-26T14:59:39.864Z,101075.36
2018-05-26T15:02:08.167Z,101069.08
2018-05-26T15:04:36.563Z,101074.77
2018-05-26T15:07:04.954Z,101069.70
2018-05-26T15:09:33.345Z,101078.35
2018-05-26T15:12:01.956Z,101071.14
2018-05-26T15:14:30.286Z,101069.72
2018-05-26T15:16:58.642Z,101075.38
2018-05-26T15:22:36.557Z,101071.37
2018-05-26T15:25:04.931Z,101072.02
2018-05-26T15:27:33.292Z,101073.17
2018-05-26T15:30:01.627Z,101072.19
2018-05-26T15:32:29.960Z,101072.77
2018-05-26T15:34:58.395Z,101068.89
2018-05-26T15:37:26.776Z,101064.14
2018-05-26T15:39:55.875Z,101066.91
2018-05-26T15:42:24.250Z,101067.18
2018-05-26T15:44:52.581Z,101059.17
2018-05-26T15:47:20.935Z,101062.73
2018-05-26T15:49:49.302Z,101057.95
2018-05-26T15:52:18.375Z,101061.63
2018-05-26T15:54:46.826Z,101055.95
2018-05-26T15:57:15.203Z,101062.58
2018-05-26T15:59:43.544Z,101058.22
2018-05-26T16:02:11.883Z,101068.78
2018-05-26T16:04:40.215Z,101060.31
2018-05-26T16:07:08.619Z,101067.91
2018-05-26T16:09:36.993Z,101063.28
2018-05-26T16:12:05.295Z,101063.70
2018-05-26T16:14:33.611Z,101068.44
2018-05-26T16:17:01.946Z,101068.02
2018-05-26T16:19:30.252Z,101064.60
2018-05-26T16:21:58.623Z,101067.91
2018-05-26T16:24:26.989Z,101067.70
2018-05-26T16:26:56.431Z,101063.53
2018-05-26T16:29:24.859Z,101061.73
2018-05-26T16:31:53.959Z,101065.05
2018-05-26T16:34:22.297Z,101060.33
2018-05-26T16:36:50.630Z,101060.47
2018-05-26T16:39:18.952Z,101066.27
2018-05-26T16:41:47.366Z,101068.02
2018-05-26T16:44:15.696Z,101066.87
2018-05-26T16:46:44.069Z,101067.38
2018-05-26T16:49:12.407Z,101072.27
2018-05-26T16:51:40.733Z,101072.86
2018-05-26T16:54:09.091Z,101070.28
2018-05-26T16:56:37.405Z,101073.31
2018-05-26T16:59:08.262Z,101064.22
2018-05-26T17:01:36.584Z,101062.44
2018-05-26T17:04:04.929Z,101069.80
2018-05-26T17:06:33.266Z,101061.11
2018-05-26T17:09:01.612Z,101066.38
2018-05-26T17:11:29.972Z,101067.13
2018-05-26T17:13:58.289Z,101070.64
2018-05-26T17:16:26.669Z,101070.22
2018-05-26T17:18:55.060Z,101074.59
2018-05-26T17:21:23.532Z,101074.13
2018-05-26T17:23:52.620Z,101071.13
2018-05-26T17:26:20.998Z,101075.66
2018-05-26T17:28:49.354Z,101076.39
2018-05-26T17:31:17.683Z,101080.33
2018-05-26T17:33:46.032Z,101075.76
2018-05-26T17:36:14.861Z,101081.59
2018-05-26T17:38:43.222Z,101088.34
2018-05-26T17:41:11.541Z,101083.78
2018-05-26T17:43:39.861Z,101090.19
2018-05-26T17:46:08.267Z,101085.60
2018-05-26T17:48:36.670Z,101086.11
2018-05-26T17:51:04.997Z,101086.79
2018-05-26T17:53:33.333Z,101083.19
2018-05-26T17:56:01.761Z,101093.73
2018-05-26T17:58:30.097Z,101088.96
2018-05-26T18:00:58.431Z,101086.53
2018-05-26T18:03:26.770Z,101088.80
2018-05-26T18:05:55.087Z,101083.20
2018-05-26T18:08:23.463Z,101088.22
2018-05-26T18:10:53.113Z,101084.86
2018-05-26T18:13:21.507Z,101093.95
2018-05-26T18:15:49.895Z,101092.08
2018-05-26T18:18:18.389Z,101091.64
2018-05-26T18:20:46.799Z,101094.59
2018-05-26T18:23:15.124Z,101100.47
2018-05-26T18:25:43.466Z,101097.86
2018-05-26T18:28:11.787Z,101093.88
2018-05-26T18:30:40.141Z,101092.56
2018-05-26T18:33:08.462Z,101089.72
2018-05-26T18:35:37.543Z,101088.55
2018-05-26T18:38:05.993Z,101088.41
2018-05-26T18:40:34.493Z,101089.14
2018-05-26T18:43:02.831Z,101091.14
2018-05-26T18:45:31.148Z,101092.42
2018-05-26T18:47:59.484Z,101093.48
2018-05-26T18:50:31.799Z,101097.95
2018-05-26T18:53:03.091Z,101094.54
2018-05-26T18:55:31.408Z,101091.73
2018-05-26T18:57:59.747Z,101099.47
2018-05-26T19:00:28.063Z,101097.94
2018-05-26T19:02:56.415Z,101105.47
2018-05-26T19:05:24.750Z,101101.53
2018-05-26T19:07:53.182Z,101103.71
2018-05-26T19:10:21.515Z,101103.70
2018-05-26T19:12:49.904Z,101104.08
2018-05-26T19:15:18.235Z,101114.63
2018-05-26T19:17:46.552Z,101114.33
2018-05-26T19:20:14.893Z,101113.20
2018-05-26T19:22:43.216Z,101118.83
2018-05-26T19:25:11.547Z,101120.89
2018-05-26T19:27:40.629Z,101115.30
2018-05-26T19:30:08.979Z,101121.98
2018-05-26T19:32:37.295Z,101126.91
2018-05-26T19:35:05.620Z,101126.02
2018-05-26T19:37:33.955Z,101124.08
2018-05-26T19:40:02.288Z,101123.94
2018-05-26T19:42:30.622Z,101125.88
2018-05-26T19:44:58.984Z,101127.08
2018-05-26T19:47:27.327Z,101126.13
2018-05-26T19:49:55.668Z,101127.48
2018-05-26T19:52:24.000Z,101126.59
2018-05-26T19:54:52.318Z,101128.81
2018-05-26T19:57:20.639Z,101127.48
2018-05-26T19:59:48.955Z,101129.06
2018-05-26T20:02:17.270Z,101128.42
2018-05-26T20:04:45.576Z,101135.11
2018-05-26T20:07:13.924Z,101137.56
2018-05-26T20:09:42.264Z,101140.25
2018-05-26T20:12:10.642Z,101148.61
2018-05-26T20:14:38.999Z,101145.93
2018-05-26T20:17:07.334Z,101145.23
2018-05-26T20:19:35.740Z,101151.38
2018-05-26T20:22:04.083Z,101143.20
2018-05-26T20:24:32.411Z,101142.72
2018-05-26T20:27:00.760Z,101145.77
2018-05-26T20:29:29.131Z,101146.86
2018-05-26T20:31:57.508Z,101148.95
2018-05-26T20:34:25.980Z,101151.48
2018-05-26T20:36:54.298Z,101151.48
2018-05-26T20:39:23.559Z,101159.82
2018-05-26T20:41:51.926Z,101165.01
2018-05-26T20:44:20.274Z,101158.13
2018-05-26T20:46:48.598Z,101161.59
2018-05-26T20:49:17.667Z,101165.20
2018-05-26T20:51:46.044Z,101158.19
2018-05-26T20:54:14.354Z,101160.31
2018-05-26T20:56:42.696Z,101161.59
2018-05-26T20:59:11.062Z,101163.27
2018-05-26T21:01:39.395Z,101160.82
2018-05-26T21:04:07.760Z,101165.98
2018-05-26T21:06:36.128Z,101163.60
2018-05-26T21:09:05.138Z,101162.01
2018-05-26T21:11:33.462Z,101158.77
2018-05-26T21:14:01.844Z,101159.63
2018-05-26T21:16:30.163Z,101160.06
2018-05-26T21:18:58.554Z,101167.67
2018-05-26T21:21:26.911Z,101162.49
2018-05-26T21:23:55.239Z,101170.81
2018-05-26T21:26:23.637Z,101172.91
2018-05-26T21:28:51.983Z,101171.14
2018-05-26T21:31:21.135Z,101170.11
2018-05-26T21:33:49.466Z,101163.38
2018-05-26T21:36:17.842Z,101164.98
2018-05-26T21:38:46.199Z,101166.48
2018-05-26T21:41:14.533Z,101167.12
2018-05-26T21:43:42.872Z,101167.52
2018-05-26T21:46:11.999Z,101169.97
2018-05-26T21:48:40.319Z,101164.63
2018-05-26T21:51:08.644Z,101170.52
2018-05-26T21:53:36.997Z,101168.38
2018-05-26T21:56:05.374Z,101177.09
2018-05-26T21:58:33.699Z,101175.37
2018-05-26T22:01:02.019Z,101179.10
2018-05-26T22:03:31.167Z,101181.86
2018-05-26T22:05:59.488Z,101181.09
2018-05-26T22:08:27.823Z,101182.19
2018-05-26T22:10:56.907Z,101181.54
2018-05-26T22:13:25.271Z,101177.84
2018-05-26T22:15:53.657Z,101168.48
2018-05-26T22:18:22.025Z,101166.92
2018-05-26T22:20:50.333Z,101159.09
2018-05-26T22:23:18.677Z,101165.48
2018-05-26T22:25:47.003Z,101167.42
2018-05-26T22:28:15.347Z,101165.48
2018-05-26T22:30:43.686Z,101162.31
2018-05-26T22:33:12.015Z,101163.56
2018-05-26T22:35:40.390Z,101170.38
2018-05-26T22:38:08.723Z,101161.98
2018-05-26T22:40:37.039Z,101162.66
2018-05-26T22:43:05.376Z,101155.14
2018-05-26T22:45:33.725Z,101161.33
2018-05-26T22:48:02.055Z,101165.70
2018-05-26T22:50:30.379Z,101162.84
2018-05-26T22:52:58.716Z,101163.31
2018-05-26T22:55:27.058Z,101160.50
2018-05-26T22:57:55.428Z,101153.16
2018-05-26T23:00:27.643Z,101154.19
2018-05-26T23:02:56.043Z,101147.20
2018-05-26T23:05:24.367Z,101147.19
2018-05-26T23:07:52.679Z,101149.81
2018-05-26T23:10:21.072Z,101151.69
2018-05-26T23:12:50.117Z,101153.68
2018-05-26T23:15:19.466Z,101151.95
2018-05-26T23:17:47.803Z,101149.81
2018-05-26T23:20:16.160Z,101144.51
2018-05-26T23:22:44.479Z,101137.47
2018-05-26T23:25:12.815Z,101136.64
2018-05-26T23:27:41.183Z,101134.07
2018-05-26T23:30:09.567Z,101126.89
2018-05-26T23:32:37.954Z,101136.14
2018-05-26T23:35:06.342Z,101128.70
2018-05-26T23:37:34.730Z,101129.42
2018-05-26T23:40:03.043Z,101132.34
2018-05-26T23:42:31.443Z,101141.23
2018-05-26T23:44:59.748Z,101134.39
2018-05-26T23:47:28.120Z,101134.77
2018-05-26T23:50:03.692Z,101133.16
2018-05-26T23:52:32.083Z,101121.59
2018-05-26T23:55:00.419Z,101118.90
2018-05-26T23:57:28.787Z,101117.84
2018-05-26T23:59:57.107Z,101116.64
